Pagina principale
METAR-TAF:

METAR-TAF

Aeroporti :

Pantelleria, Italia

Aeroporto di Pantelleria

latitudine: 36-49N, longitudine: 011-58E, altezza: 191 m

Osservazione

Il bollettino è stato emesso 7 ore e 19 minuti fa, alle 17:55 UTC
Vento 14 kt da ovest
Temperature 13°C
Umidità 88%
Pressione 1023 hPa
Visibilità 10 km o più
Nubi sparse ad un'altezza di 2000 ft

METAR: LICG 161755Z 26014KT 9999 SCT020 13/11 Q1023 RMK SCT VIS MIN 9999 WIND THR08 /////KT WIND THR21 28015KT BLU

Ora: 02:14 (01:14 UTC)

Previsione

Il bollettino è stato emesso 8 ore e 14 minuti fa, alle 17:00 UTC
Previsione valida dal 16 alle 18 UTC al 17 alle 03 UTC
Vento 15 kt da ovest
Visibilità 10 km o più
Nubi sparse ad un'altezza di 2000 ft

TAF: LICG 161700Z 1618/1703 27015KT 9999 SCT020

Osservazioni e previsioni meteorologiche di più di 4000 aeroporti (messaggi METAR e TAF).

Le stazioni disponibili sono rappresentate dai dischi gialli e rossi sulla carta.

Puntare il mouse per vedere il nome della stazione.

Clicca sopra per visualizzare le osservazioni e previsioni meteorologiche.

Per cambiare la mappa : fare clic sui pulsanti verdi con una croce nera per ingrandire, il pulsante verde con un trattino per diminuire, o sulla freccia verde per le mappe adiacenti.


METAR-TAF: